Metar

!!! Benutzen Sie f├╝r Ihre Flugvorbereitung die offiziellen Quellen !!!

Metar:

EDQM 220950Z VRB03KT CAVOK 12/04 Q1032

QNH: 1032
Temperatur: 12
Dew Point : 4

 

METAR (decoded)